Member area
Imprimable
Challenges > Delhalle - Hamoir, 22/08/2021, BEL - Jogging de l’Ourthe
List of reports > Delhalle - 17.5km - Result
Search: Page: [1]
108 Entries
 
Complains are not accepted anymore. Results are final.
Category
PosNrNameAgeNATLeagueTeamRealTimeTkmMoy.PlaceNamePTSCity
1.363MARCHAL GILLES32BELFLEUGAG-RUNATTITUDE1:03:101:03:103:47 15.861sen1057GEMBLOUX
2.2046BRYSBAERT KEVIN31BELFLAC1:04:141:04:143:51 15.602sen1038WESTVLETEREN
3.2068CHARNIER CHRISTIAN43BELURBAN TRI SPORT1:05:261:05:263:56 15.321ve11018AYWAILLE
4.556RATINCKX JEAN PHILIPPE33BELRIWARIWA1:07:101:07:114:02 14.923sen990OTTIGNIES
5.2084FAGNOULLE GAUTHIER30BEL1:08:161:08:184:06 14.674sen972
6.868VIAL BERTRAND30BELCSFMYSTERE1:08:241:08:244:06 14.655sen967FOREST
7.263DELCHAMBRE FRÉDÉRIC48BELVINO TEAM1:10:321:10:324:14 14.212ve1935SERAING
8.2047BRYSBAERT GLENN25BELFLAC1:10:591:10:594:16 14.126sen926WESTVLETEREN
9.178KLEPPER JULIEN30BELRIWA1:11:331:11:334:18 14.017sen916BIERGES
10.342LOMBART FRÉDÉRIC54BELFLEUGAG1:12:001:12:014:19 13.911ve2906SAUVENIÈRE
11.2065DARTE ERIC57BELOCAN1:12:231:12:254:21 13.842ve2898LEUZE
12.2057MEUNIER VINCENT39BELOMEGA NUTRITION1:13:121:13:124:23 13.698sen885OUFFET
13.17FDESILLE NICOLE54BELRIWAJTP BLANCS GILE1:13:271:13:294:25 13.641ai2879LA HULPE
14.2066DARTE DIDIER52BELOCAN1:16:081:16:114:34 13.163ve2842SCALTIN
15.294HASSOUTE EL MOUSTAFA55BELCSFMYSTERE1:16:131:16:134:34 13.154ve2838FOREST
16.2080DEFECHEREUX CÉDRIC47BELCRAMPONS DE L'O1:16:341:16:354:36 13.083ve1831COMBLAIN LA TOUR
17.2072NEUTELEERS ERIC61BELRUNNERS TEAM SP1:17:411:17:434:40 12.891ve3814ESNEUX
18.620SCHOONJANS MICHEL48BELMYSTERE1:18:351:18:364:43 12.754ve1800UCCLE
19.612CHARLES CHRISTOPHE45BELCSFMYSTERE1:19:331:19:344:46 12.595ve1786FOREST
20.404TILBURGS FRANK54BELAVN1:19:501:19:544:48 12.545ve2780MEER
21.66ROSSIGNOL OLIVIER51BELSPORTIVAMENTE1:20:311:20:334:50 12.446ve2769ANDERLECHT
22.400BELOT ALAIN51BELGAG1:21:211:21:254:53 12.317ve2756GEMBLOUX
23.67FRENCKENS AN40BELSPORTIVAMENTE1:21:301:21:334:53 12.291ai1751ANDERLECHT
24.129MARTINEAU PHILIPPE43FRAGAG1:22:361:22:374:57 12.136ve1735GEMBLOUX
25.2082LALLEMAND BENOIT63BELFOULÉES DU PLAI1:23:031:23:044:59 12.062ve3727HUY
26.236DUYCK XAVIER54BEL1:23:311:23:335:01 12.008ve2719SPY
27.425DE GRAVE OLIVIER56BELCSFMYSTERE1:24:241:24:255:04 11.879ve2706UCCLE
28.68MASURE ALEXANDRE51BELRCNAMUR1:24:501:24:515:05 11.8110ve2698CHAMPION
29.899FPISCART FRANCOISE50BELSERMYSTERE1:25:241:25:265:07 11.732ai2689CHENEE
30.819FPIRSON FLORENCE49BELRIWA1:25:331:25:375:08 11.712ai1684GENVAL
31.626LAMBERT CARL58BELGAG1:25:571:26:005:09 11.6511ve2677GRAND-MANIL
32.2060FNEARNO TANINA48BELTTR1:26:251:26:285:11 11.593ai1668OREYE
33.302FMUNAUT CARINE58BELSERSERAING ATHLÉTI1:26:281:26:305:11 11.583ai2665LIMONT
34.2061TRUSCIA VINCENT49BELTTR1:26:281:26:305:11 11.587ve1662OREYE
35.2073FMAGAM MURIEL48BEL1:27:491:27:515:16 11.414ai1644SPRIMONT
36.685LETELLIER JEAN-LUC56BELMYSTERE1:28:121:28:145:17 11.3612ve2637LIMELETTE
37.815DE PRINS JEAN-FRANÇOIS23BELRIWA1:28:131:28:165:18 11.359sen634GENVAL
38.2085DEVIGNE GREGORY44BEL1:28:241:28:255:18 11.338ve1629BANDE
39.2050JACQUEMIN PATRICK56BEL1:28:271:28:305:18 11.3213ve2625HANNUT
40.483FDE WOOT ANTOINETTE57BELESM1:28:301:28:375:19 11.314ai2621MARCHIENNE AU PONT
41.2075BERNIER BERTRAND42BEL1:28:371:28:435:19 11.309ve1617
42.2070LEMAL DENIS53BEL1:28:581:29:035:20 11.2514ve2610
43.494MATHY JEAN-LUC68BELRCNAMUR1:29:481:29:505:23 11.163ve3599NAMUR
44.27CANIVET ROLAND74BELBOUFFIOLS1:29:491:29:505:23 11.161ve4595NALINNES
45.2086CREZ ERIC60BEL1:29:111:29:505:23 11.154ve3598ANTHISNES
46.2043BRUCCOLERI PAOLO62ITA1:29:561:29:595:24 11.145ve3588PLAINEVAUX
47.640JUNGBLUTH RAYMOND71BEL1:30:151:30:175:25 11.102ve4581WELKENRAEDT
48.2056CÔTE HENRY-FRANÇOIS44BEL1:30:511:30:525:27 11.0310ve1572BARVAUX S/O
49.623PISCART PIERRE61BELMOHAFORESTIERE1:30:491:30:585:27 11.026ve3569OBOURG
50.543LAFORGE FREDERIC46BELWACO1:31:001:31:035:28 11.0111ve1565HANEFFE
51.61FKETELE CORALIE27BELFLEUGAG1:31:541:31:595:31 10.891dam552LONZÉE
52.2058LINOTTE PATRICK31BEL1:34:111:34:165:39 10.6310sen526LIÈGE
53.725FTROUPIN CECILE47BELJC HSH1:34:131:34:195:39 10.625ai1523GERPINNES
54.734RASSCHAERT ALEXANDRE34BELARCH1:34:481:34:515:41 10.5611sen514ANSEREMME
55.2059FDE KUYSSCHER LYDIA48BELBIOTRAIL1:35:151:35:225:43 10.516ai1506NAMUR
56.607FVIGNERON SABINE58BELRCN1:35:171:35:225:43 10.515ai2503JAMBES
57.357FERAUCHE JEAN-MARIE72BELUAC1:35:591:36:015:45 10.443ve4493LES BONS VILLERS
58.940MAAS STIJN44BEL1:36:191:36:215:47 10.4012ve1487JETTE
59.2069MINET LAURENT54BELRCNAMUR1:37:361:37:455:52 10.2515ve2471
60.115FMARAFKO ISABELLE52BELGAG1:37:471:37:525:52 10.246ai2466GEMBLOUX
61.439DEWEZ QUENTIN34BEL1:37:501:37:575:52 10.2312sen463SORINNE-LA-LONGUE
62.621DEWEZ ALEX65BEL1:37:501:37:575:52 10.237ve3459ERPENT
63.2067MORAY DIDIER57BEL1:38:061:38:135:53 10.2016ve2454COMBLAIN-FAIRON
64.301QUINET JEAN PAUL71BEL1:38:161:38:205:54 10.194ve4449GILLY
65.2048MARQUES NETO GARY41BELETC1:38:181:38:245:54 10.1813ve1446SENEFFE
66.217HENNE PATRICE63BELJCHSH1:38:591:39:075:57 10.118ve3436HAM-SUR-HEURE
67.296DESSEILLE ERNEST67BELRCNAMUR1:39:211:39:285:58 10.079ve3430WÉPION
68.2053BONNET PIERRE62BEL1:40:041:40:106:00 10.0010ve3420LIÈGE ANGLEUR
69.2054KRIESCHER THIBAULT20BEL1:40:191:40:236:01 9.9813sen414HAMOIR
70.2077FMOUVET FRANCE52BELRTS1:40:521:40:566:03 9.937ai2406DOLEMBREUX
71.2076LEJEUNE CHRISTOPHE52BELRTS1:40:531:40:576:03 9.9317ve2403
72.513DUFAUX RAPHAEL54BELJCPMF FLV1:41:081:41:186:04 9.8918ve2398FLOREFFE
73.2064FDIMAURO AUDREY35BEL1:42:331:42:366:09 9.772dam382WERIS
74.2055FDURDU MARYLÈNE37BEL1:43:371:43:396:13 9.673dam369BARVAUX S/O
75.695DE DAPPER DAVID48BELCSFMYSTERE1:43:451:43:476:13 9.6614ve1365BRUXELLES
76.2051DONCEEL MARC59BEL1:43:461:43:506:14 9.6519ve2362NANDRIN
77.786CORBIAUX BENJAMIN36BELRCNAMUR1:43:451:43:506:14 9.6514sen358BOIS-DE-VILLERS
78.2074FBIA FABIENNE49BEL1:46:221:46:286:23 9.417ai1332
79.2081FLEHERT EVE44BEL1:47:031:47:096:25 9.358ai1323
80.545SWENNEN GILBERT71BELFOULEES DU PLAI1:49:161:49:196:33 9.175ve4301HUY
81.127GRANDMONT ANDRÉ60BELARCHARCH1:49:231:49:376:34 9.1411ve3297DINANT
82.2079REMACLE ETIENNE55BELWATT NAMUR1:50:111:50:196:37 9.0820ve2287TEMPLOUX
83.713DUSSART JEAN-PIERRE72BELUAC1:50:111:50:226:37 9.086ve4284CHATELINEAU (BELGIQUE)
84.2078FGOOSSENS BRIGITTE53BELWATT NAMUR1:50:151:50:236:37 9.088ai2280TEMPLOUX
85.627FLAMBERT BERNADETTE63BELSPTWAVRE1:50:171:50:276:37 9.071ai3276HAMME-MILLE
86.184FHAUTIER CATHERINE33BELRCNAMUR1:50:321:50:386:38 9.064dam271BOIS-DE-VILLERS
87.172SEPULCHRE MICHAËL65BEL1:50:581:51:066:40 9.0212ve3265RÊVES
88.493MOÏSE PATRICK61BELRCNAMUR1:54:011:54:066:50 8.7813ve3236JAMBES
89.2083LAMBERT JEAN40BEL1:54:281:54:356:52 8.7415ve1230
90.850PENSEZ PIERRE58BELFORESTIERE1:54:551:55:046:54 8.7121ve2223MONS
91.391FVAUSE FABIENNE56BELRCNAMUR1:56:341:56:427:00 8.599ai2206MALONNE
92.678FOLCQUE PHILIPPE57BELRCNAMUR1:56:331:56:427:00 8.5922ve2204MALONNE
93.197WOUTERS QUENTIN24BELRONVAU1:56:561:57:067:01 8.5615sen197GEMBLOUX
94.458WOUTERS WILLIAM53BELRONVAU1:57:031:57:157:02 8.5523ve2193PERWEZ
95.2063ACETO ALESSANDRO29BEL1:58:151:58:267:06 8.4616sen181CHARLEROI
96.2062AMADDEO MARLON29BEL1:58:151:58:267:06 8.4617sen178CHARLEROI
97.144CORBIAUX CHRISTOPHE42BELRCNAMUR1:59:411:59:487:11 8.3616ve1163FLAWINNE
98.2052PLASMAN CHRISTIAN57BEL2:00:292:00:417:14 8.3024ve2154GANSHOREN
99.662FLEGRAND KARINE57BEL2:01:322:01:427:18 8.2310ai2143GRAND-MANIL
100.2044FAMBROSI FRANÇOISE52BEL2:08:502:09:007:44 7.7711ai285GILLY
101.2045VANNOORENBERGHE BERNARD58BEL2:08:502:09:007:44 7.7725ve282GILLY
102.923CEULEMANS NICOLAS51BELANTILOB2:10:502:10:557:51 7.6526ve265INCOURT
103.179FROUSSEAUX AGNES52BEL2:11:202:11:337:53 7.6212ai258GODINNE
104.448ROMAIN BERNARD64BELRONVAU2:11:192:11:347:53 7.6214ve355GODINNE
105.707NEMANN BRUNO39BELRCNAMUR2:13:512:13:588:02 7.4818sen35WARTET
106.2049JASSOGNE CLAUDY67BELRC NAMUR2:13:502:13:588:02 7.4815ve331BONINNE
107.8ANTOINE ALAIN60BELRCNAMUR2:40:152:40:159:36 6.2516ve33TEMPLOUX
DNF124LE CHARLIER BAUDOUIN71BELve4NAMUR
DNF: did not finish; DSQ: disqualified; Speed in km/h
Page: [1]